Balsam Grove, North Carolina
Current Conditions -  °F | °C
As of 1:54 AM on Thursday 23 Oct 2014 (Local Time) from KAVL Reporting Station
Clear Clear  
Wind Chill: 38°   Ceiling: Unl
Heat Index: 45°   Visibility: 10mi
Dew Point: 35°   Wind: 15mph
Humidity: 68%   Direction: 340°NNW
Pressure: 30.14"   Gusts: 25mph
Location:  35.23°N, 82.87°W
Report Text: KAVL 230554Z AUTO 34013G22KT 10SM CLR 07/02 A3014 RMK AO2 SLP200 T00720017 10094 20067 58006
Loading
Personal Weather Stations






























Interactive Weather Map
Tropical Storm Tracking
New forecast layout! Learn more

10-Day Weather Forecast

Advertisements
Track Severe Weather on mobile